Time;durP1;ratioP1;P1;durP2;ratioP2;P2;SDS_P1;SDS_P2;PMS_P1;PMS_P2;Temp;Humidity;BMP_temperature;BMP_pressure;BME280_temperature;BME280_humidity;BME280_pressure;Samples;Min_cycle;Max_cycle;Signal;HPM_P1;HPM_P2
2023/01/08 00:02:09;;;;;;;13.75;2.42;;;9.10;99.90;;;;;;5023292;28;20061;-71
2023/01/08 00:04:35;;;;;;;14.73;2.35;;;9.20;99.90;;;;;;5010932;28;20453;-71
2023/01/08 00:07:01;;;;;;;16.55;3.75;;;9.10;99.90;;;;;;5010590;28;20466;-71
2023/01/08 00:09:27;;;;;;;11.15;2.20;;;9.10;99.90;;;;;;5013674;28;20025;-72
2023/01/08 00:11:52;;;;;;;17.55;2.78;;;9.00;99.90;;;;;;5007698;28;20116;-71
2023/01/08 00:14:18;;;;;;;15.40;2.17;;;8.90;99.90;;;;;;5013163;28;20113;-72
2023/01/08 00:16:44;;;;;;;13.20;2.00;;;8.90;99.90;;;;;;5012841;28;20041;-73
2023/01/08 00:19:11;;;;;;;24.63;2.25;;;8.90;99.90;;;;;;5011670;28;20101;-71
2023/01/08 00:21:37;;;;;;;14.63;2.67;;;8.90;99.90;;;;;;5012073;28;20616;-73
2023/01/08 00:24:03;;;;;;;16.80;2.65;;;8.90;99.90;;;;;;5011171;28;20149;-71
2023/01/08 00:26:28;;;;;;;17.42;2.22;;;8.80;99.90;;;;;;5012180;28;20091;-71
2023/01/08 00:28:54;;;;;;;12.82;1.48;;;8.90;99.90;;;;;;5011407;28;20176;-72
2023/01/08 00:31:20;;;;;;;13.88;2.47;;;8.90;99.90;;;;;;5011815;28;20393;-72
2023/01/08 00:33:46;;;;;;;16.52;2.47;;;8.90;99.90;;;;;;5012419;28;20543;-72
2023/01/08 00:36:15;;;;;;;10.50;2.30;;;9.00;99.90;;;;;;5010697;28;20685;-71
2023/01/08 00:38:41;;;;;;;13.65;3.35;;;9.10;99.90;;;;;;5028226;28;20505;-71
2023/01/08 00:41:07;;;;;;;17.85;3.63;;;9.20;99.90;;;;;;5008566;28;20057;-71
2023/01/08 00:43:33;;;;;;;21.00;2.53;;;9.20;99.90;;;;;;5008984;28;20111;-71
2023/01/08 00:45:59;;;;;;;21.38;3.20;;;9.20;99.90;;;;;;5010675;28;20044;-71
2023/01/08 00:48:25;;;;;;;27.85;5.10;;;9.20;99.90;;;;;;5012852;28;20092;-72
2023/01/08 00:50:52;;;;;;;22.85;3.28;;;9.10;99.90;;;;;;5012180;28;20026;-72
2023/01/08 00:53:19;;;;;;;15.15;2.30;;;9.10;99.90;;;;;;5010139;28;20030;-72
2023/01/08 00:55:45;;;;;;;23.13;3.28;;;9.20;99.90;;;;;;5011682;28;20029;-72
2023/01/08 00:58:11;;;;;;;20.17;3.53;;;9.20;99.90;;;;;;5009296;28;20034;-73
2023/01/08 01:00:37;;;;;;;26.30;3.22;;;9.10;99.90;;;;;;5012771;28;20018;-71
2023/01/08 01:03:03;;;;;;;13.48;2.72;;;9.10;99.90;;;;;;5009150;28;20868;-73
2023/01/08 01:05:29;;;;;;;17.05;3.00;;;9.10;99.90;;;;;;5012013;28;20053;-73
2023/01/08 01:07:55;;;;;;;15.63;4.10;;;9.10;99.90;;;;;;5010714;28;20140;-73
2023/01/08 01:10:22;;;;;;;17.73;3.22;;;9.00;99.90;;;;;;5011700;28;20018;-74
2023/01/08 01:12:47;;;;;;;27.33;3.65;;;9.00;99.90;;;;;;5010147;28;20072;-73
2023/01/08 01:15:15;;;;;;;16.25;3.45;;;9.10;99.90;;;;;;5009978;28;20065;-71
2023/01/08 01:17:43;;;;;;;20.20;3.15;;;9.10;99.90;;;;;;5012386;28;20026;-72
2023/01/08 01:20:11;;;;;;;24.48;3.97;;;9.00;99.90;;;;;;5009739;28;20033;-70
2023/01/08 01:22:37;;;;;;;19.60;3.30;;;9.00;99.90;;;;;;5010671;28;20022;-72
2023/01/08 01:25:04;;;;;;;22.40;3.65;;;9.00;99.90;;;;;;5010156;28;20385;-73
2023/01/08 01:27:29;;;;;;;23.02;3.15;;;9.00;99.90;;;;;;5011932;28;20026;-73
2023/01/08 01:29:55;;;;;;;15.30;2.83;;;9.00;99.90;;;;;;5005986;28;20154;-73
2023/01/08 01:32:21;;;;;;;14.75;2.65;;;9.10;99.90;;;;;;5011071;28;20034;-73
2023/01/08 01:34:47;;;;;;;17.63;2.70;;;9.10;99.90;;;;;;5011981;28;20543;-72
2023/01/08 01:37:13;;;;;;;20.80;3.17;;;9.20;99.90;;;;;;5009406;28;20029;-72
2023/01/08 01:39:42;;;;;;;20.75;2.70;;;9.20;99.90;;;;;;5011745;28;20068;-74
2023/01/08 01:42:38;;;;;;;17.98;3.35;;;9.10;99.90;;;;;;5008732;28;20495;-72
2023/01/08 01:44:58;;;;;;;15.82;2.83;;;9.10;99.90;;;;;;5008566;28;20026;-72
2023/01/08 01:47:39;;;;;;;15.82;3.97;;;9.00;99.90;;;;;;5010536;28;20040;-72
2023/01/08 01:50:11;;;;;;;20.95;3.10;;;8.90;99.90;;;;;;5009788;28;20094;-73
2023/01/08 01:52:45;;;;;;;22.60;2.90;;;8.90;99.90;;;;;;5007582;28;20073;-72
2023/01/08 01:55:12;;;;;;;10.57;1.92;;;9.00;99.90;;;;;;5009250;28;20026;-72
2023/01/08 01:57:38;;;;;;;15.77;3.15;;;8.90;99.90;;;;;;5011206;28;20030;-72
2023/01/08 02:00:08;;;;;;;18.05;2.45;;;8.90;99.90;;;;;;5009565;28;20032;-72
2023/01/08 02:02:33;;;;;;;19.45;3.28;;;8.90;99.90;;;;;;5009207;28;20072;-71
2023/01/08 02:05:02;;;;;;;15.63;2.35;;;8.90;99.90;;;;;;5007584;28;20034;-73
2023/01/08 02:07:35;;;;;;;27.25;2.50;;;8.90;99.90;;;;;;5010532;28;20033;-72
2023/01/08 02:10:03;;;;;;;14.52;3.80;;;8.90;99.90;;;;;;5004841;28;20040;-72
2023/01/08 02:12:38;;;;;;;24.00;3.00;;;8.90;99.90;;;;;;5008609;28;20084;-71
2023/01/08 02:15:46;;;;;;;19.88;3.13;;;8.80;99.90;;;;;;5006969;28;20080;-72
2023/01/08 02:18:25;;;;;;;17.83;3.58;;;8.90;99.90;;;;;;5005490;28;20516;-73
2023/01/08 02:21:00;;;;;;;18.10;2.38;;;8.80;99.90;;;;;;5000373;28;20061;-73
2023/01/08 02:23:32;;;;;;;16.35;3.38;;;8.90;99.90;;;;;;5009361;28;20030;-73
2023/01/08 02:26:08;;;;;;;15.15;2.83;;;8.80;99.90;;;;;;5008756;28;20034;-73
2023/01/08 02:28:46;;;;;;;18.33;2.58;;;8.90;99.90;;;;;;5010181;28;20030;-73
2023/01/08 02:31:14;;;;;;;19.70;2.95;;;9.00;99.90;;;;;;5008204;28;21096;-73
2023/01/08 02:33:40;;;;;;;15.57;2.92;;;9.10;99.90;;;;;;5010547;28;20034;-73
2023/01/08 02:36:34;;;;;;;16.67;2.83;;;9.10;99.90;;;;;;5008172;28;20412;-73
2023/01/08 02:39:25;;;;;;;16.45;2.78;;;9.20;99.90;;;;;;4947996;29;20078;-73
2023/01/08 02:41:53;;;;;;;14.18;2.45;;;9.20;99.90;;;;;;4948654;29;20035;-73
2023/01/08 02:44:28;;;;;;;16.42;3.03;;;9.20;99.90;;;;;;4949639;29;20064;-71
2023/01/08 02:46:57;;;;;;;16.10;2.95;;;9.20;99.90;;;;;;4948530;29;20122;-70
2023/01/08 02:49:29;;;;;;;15.73;3.17;;;9.20;99.90;;;;;;4949970;29;20042;-71
2023/01/08 02:51:57;;;;;;;15.45;2.08;;;9.20;99.90;;;;;;4945991;29;20408;-72
2023/01/08 02:54:30;;;;;;;13.65;2.72;;;9.20;99.90;;;;;;4946657;29;20034;-72
2023/01/08 02:57:10;;;;;;;18.48;3.67;;;9.20;99.90;;;;;;4945709;29;20035;-72
2023/01/08 02:59:38;;;;;;;20.40;2.58;;;9.20;99.90;;;;;;4948268;29;20163;-72
2023/01/08 03:02:05;;;;;;;16.45;3.05;;;9.20;99.90;;;;;;4944412;29;20027;-72
2023/01/08 03:04:38;;;;;;;15.85;3.88;;;9.20;99.90;;;;;;4948734;29;20555;-71
2023/01/08 03:07:04;;;;;;;20.05;2.33;;;9.10;99.90;;;;;;4948380;29;20035;-72
2023/01/08 03:09:29;;;;;;;17.80;2.78;;;9.00;99.90;;;;;;4933616;29;20038;-71
2023/01/08 03:12:14;;;;;;;16.30;2.72;;;8.90;99.90;;;;;;4946379;29;20122;-72
2023/01/08 03:14:42;;;;;;;13.82;2.17;;;8.80;99.90;;;;;;4947640;29;20050;-72
2023/01/08 03:17:18;;;;;;;17.27;2.80;;;8.90;99.90;;;;;;5008168;28;20041;-72
2023/01/08 03:19:55;;;;;;;18.20;2.72;;;9.00;99.90;;;;;;5006255;28;20077;-72
2023/01/08 03:22:22;;;;;;;12.80;3.13;;;8.90;99.90;;;;;;5003898;28;20025;-72
2023/01/08 03:24:53;;;;;;;22.33;2.75;;;8.90;99.90;;;;;;5009876;28;20037;-72
2023/01/08 03:27:27;;;;;;;16.90;2.85;;;8.90;99.90;;;;;;5002163;28;20214;-72
2023/01/08 03:29:55;;;;;;;13.00;1.98;;;8.80;99.90;;;;;;5005683;28;20057;-72
2023/01/08 03:32:23;;;;;;;15.30;2.42;;;8.80;99.90;;;;;;5007950;28;20064;-72
2023/01/08 03:34:51;;;;;;;15.00;2.40;;;8.80;99.90;;;;;;5009075;28;20026;-72
2023/01/08 03:37:22;;;;;;;20.55;2.88;;;8.90;99.90;;;;;;5007360;28;20026;-71
2023/01/08 03:40:07;;;;;;;14.25;2.83;;;9.00;99.90;;;;;;5009788;28;20030;-72
2023/01/08 03:42:33;;;;;;;19.25;2.75;;;9.10;99.90;;;;;;5008374;28;20073;-73
2023/01/08 03:44:59;;;;;;;16.23;2.75;;;9.20;99.90;;;;;;5007390;28;20033;-73
2023/01/08 03:47:28;;;;;;;25.70;3.92;;;9.20;99.90;;;;;;5009868;28;20030;-73
2023/01/08 03:49:56;;;;;;;15.30;2.72;;;9.20;99.90;;;;;;5007571;28;20116;-73
2023/01/08 03:52:28;;;;;;;21.40;3.50;;;9.30;99.90;;;;;;5008672;28;20072;-73
2023/01/08 03:54:53;;;;;;;15.02;2.80;;;9.30;99.90;;;;;;5007354;28;20026;-73
2023/01/08 03:57:19;;;;;;;18.17;2.33;;;9.30;99.90;;;;;;5008915;28;20032;-73
2023/01/08 03:59:45;;;;;;;8.18;2.30;;;9.30;99.90;;;;;;5009512;28;20044;-73
2023/01/08 04:02:11;;;;;;;25.35;3.38;;;9.20;99.90;;;;;;5007198;28;20036;-73
2023/01/08 04:04:37;;;;;;;20.60;2.45;;;9.10;99.90;;;;;;5008519;28;20092;-73
2023/01/08 04:07:04;;;;;;;20.30;2.88;;;9.20;99.90;;;;;;5007652;28;20030;-72
2023/01/08 04:09:30;;;;;;;16.23;2.50;;;9.20;99.90;;;;;;5009452;28;20033;-72
2023/01/08 04:11:56;;;;;;;17.88;2.60;;;9.10;99.90;;;;;;5006358;28;20053;-73
2023/01/08 04:14:21;;;;;;;23.48;3.50;;;9.10;99.90;;;;;;5009297;28;20033;-73
2023/01/08 04:16:47;;;;;;;22.98;2.70;;;9.10;99.90;;;;;;5005935;28;20070;-73
2023/01/08 04:19:13;;;;;;;18.23;3.20;;;9.10;99.90;;;;;;5007529;28;20104;-73
2023/01/08 04:21:39;;;;;;;14.55;2.08;;;9.10;99.90;;;;;;5008733;28;20022;-73
2023/01/08 04:24:06;;;;;;;23.00;4.05;;;9.10;99.90;;;;;;5007091;28;20022;-73
2023/01/08 04:26:31;;;;;;;11.23;2.08;;;9.10;99.90;;;;;;5008464;28;20095;-72
2023/01/08 04:28:57;;;;;;;21.02;3.30;;;9.00;99.90;;;;;;5007839;28;20125;-73
2023/01/08 04:31:23;;;;;;;22.17;3.65;;;9.00;99.90;;;;;;5008553;28;20184;-73
2023/01/08 04:33:49;;;;;;;22.52;2.97;;;9.00;99.90;;;;;;5008670;28;20046;-73
2023/01/08 04:36:15;;;;;;;17.77;3.35;;;8.90;99.90;;;;;;5007521;28;20032;-73
2023/01/08 04:38:41;;;;;;;15.02;2.58;;;8.90;99.90;;;;;;5008857;28;20030;-70
2023/01/08 04:41:07;;;;;;;20.00;2.35;;;8.90;99.90;;;;;;5006223;28;20028;-72
2023/01/08 04:43:32;;;;;;;15.43;2.67;;;9.00;99.90;;;;;;5029562;23;20109;-71
2023/01/08 04:46:02;;;;;;;17.35;2.05;;;9.10;99.90;;;;;;5017079;28;20076;-70
2023/01/08 04:48:29;;;;;;;17.15;2.55;;;9.10;99.90;;;;;;5027601;28;20428;-70
2023/01/08 04:50:57;;;;;;;16.48;2.67;;;9.10;99.90;;;;;;5028047;28;20043;-69
2023/01/08 04:53:23;;;;;;;11.57;2.28;;;9.10;99.90;;;;;;5031254;28;20116;-71
2023/01/08 04:55:49;;;;;;;13.73;2.40;;;9.10;99.90;;;;;;5023127;28;20072;-70
2023/01/08 04:58:14;;;;;;;17.35;2.28;;;9.10;99.90;;;;;;5029735;28;20494;-70
2023/01/08 05:00:40;;;;;;;14.30;2.40;;;9.10;99.90;;;;;;5025618;28;20026;-71
2023/01/08 05:03:06;;;;;;;18.13;2.55;;;9.10;99.90;;;;;;5024338;28;20527;-71
2023/01/08 05:05:33;;;;;;;12.50;2.17;;;9.20;99.90;;;;;;5028356;28;20504;-71
2023/01/08 05:07:59;;;;;;;14.75;2.80;;;9.20;99.90;;;;;;5022404;28;20054;-70
2023/01/08 05:10:24;;;;;;;12.25;1.88;;;9.20;99.90;;;;;;5026536;28;20065;-70
2023/01/08 05:12:50;;;;;;;18.48;3.08;;;9.10;99.90;;;;;;5027582;28;20041;-70
2023/01/08 05:15:16;;;;;;;13.23;2.42;;;9.20;99.90;;;;;;5025284;28;20033;-71
2023/01/08 05:17:41;;;;;;;17.45;2.80;;;9.20;99.90;;;;;;5026843;28;20025;-70
2023/01/08 05:20:08;;;;;;;19.65;2.72;;;9.30;99.90;;;;;;5023983;28;20382;-70
2023/01/08 05:22:34;;;;;;;15.05;1.92;;;9.30;99.90;;;;;;5026869;28;20067;-69
2023/01/08 05:24:59;;;;;;;15.55;2.55;;;9.30;99.90;;;;;;5025648;28;20054;-69
2023/01/08 05:27:27;;;;;;;16.52;2.67;;;9.30;99.90;;;;;;5023617;28;20032;-70
2023/01/08 05:29:53;;;;;;;20.98;2.53;;;9.40;99.90;;;;;;5019267;28;20029;-70
2023/01/08 05:32:28;;;;;;;16.52;2.70;;;9.30;99.90;;;;;;5028802;28;20045;-70
2023/01/08 05:34:53;;;;;;;15.35;2.17;;;9.30;99.90;;;;;;5022368;28;20033;-70
2023/01/08 05:37:19;;;;;;;16.83;2.75;;;9.20;99.90;;;;;;5023039;28;20037;-70
2023/01/08 05:39:45;;;;;;;20.42;2.50;;;9.10;99.90;;;;;;5027766;28;20065;-72
2023/01/08 05:42:48;;;;;;;12.20;2.60;;;9.10;99.90;;;;;;4787086;28;20490;-63
2023/01/08 05:45:15;;;;;;;7.55;1.20;;;8.80;99.90;;;;;;5027104;28;20354;-74
2023/01/08 05:47:41;;;;;;;4.85;0.85;;;8.50;99.90;;;;;;5031648;28;20049;-79
2023/01/08 05:50:07;;;;;;;3.97;0.52;;;8.20;99.90;;;;;;5026444;28;20029;-76
2023/01/08 05:52:33;;;;;;;2.97;0.60;;;8.00;99.90;;;;;;5027360;28;20048;-75
2023/01/08 05:54:59;;;;;;;2.42;0.70;;;7.80;99.90;;;;;;5023573;28;20116;-75
2023/01/08 05:57:25;;;;;;;0.80;0.20;;;7.70;99.90;;;;;;5023644;28;20410;-75
2023/01/08 05:59:50;;;;;;;5.72;0.50;;;7.70;99.90;;;;;;5026726;28;20485;-74
2023/01/08 06:02:16;;;;;;;5.45;0.90;;;7.70;99.90;;;;;;5023949;28;20024;-74
2023/01/08 06:04:43;;;;;;;5.68;0.40;;;7.60;99.90;;;;;;5026858;28;20105;-73
2023/01/08 06:07:08;;;;;;;6.63;1.10;;;7.60;99.90;;;;;;5024396;28;20117;-73
2023/01/08 06:09:34;;;;;;;8.07;1.52;;;7.60;99.90;;;;;;5026186;28;20116;-73
2023/01/08 06:12:00;;;;;;;14.63;1.88;;;7.60;99.90;;;;;;5024352;28;20048;-73
2023/01/08 06:14:25;;;;;;;11.57;1.45;;;7.60;99.90;;;;;;5025286;28;20079;-72
2023/01/08 06:16:51;;;;;;;18.10;2.45;;;7.60;99.90;;;;;;5025352;28;20049;-74
2023/01/08 06:19:17;;;;;;;18.02;1.65;;;7.50;99.90;;;;;;5026546;28;20491;-74
2023/01/08 06:21:43;;;;;;;10.65;1.33;;;7.50;99.90;;;;;;5024764;28;20101;-72
2023/01/08 06:24:09;;;;;;;11.07;1.13;;;7.50;99.90;;;;;;5025829;28;20113;-74
2023/01/08 06:26:35;;;;;;;9.18;1.48;;;7.50;99.90;;;;;;5023239;28;20109;-72
2023/01/08 06:29:00;;;;;;;13.80;1.83;;;7.50;99.90;;;;;;5025886;28;20029;-72
2023/01/08 06:31:26;;;;;;;8.68;0.80;;;7.50;99.90;;;;;;5027196;28;20025;-73
2023/01/08 06:33:52;;;;;;;10.63;1.08;;;7.50;99.90;;;;;;5025845;28;20041;-73
2023/01/08 06:36:17;;;;;;;9.32;0.90;;;7.50;99.90;;;;;;5025411;28;20393;-72
2023/01/08 06:38:43;;;;;;;11.35;2.47;;;7.50;99.90;;;;;;5023903;28;20037;-73
2023/01/08 06:41:10;;;;;;;8.68;1.10;;;7.50;99.90;;;;;;5025288;28;20048;-72
2023/01/08 06:43:37;;;;;;;11.05;1.40;;;7.60;99.90;;;;;;5019584;28;20049;-73
2023/01/08 06:46:08;;;;;;;7.38;1.50;;;7.60;99.90;;;;;;5023569;28;20083;-73
2023/01/08 06:48:34;;;;;;;5.10;1.00;;;7.60;99.90;;;;;;5019460;28;20381;-72
2023/01/08 06:51:01;;;;;;;9.48;1.05;;;7.70;99.90;;;;;;5024315;28;20060;-72
2023/01/08 06:53:27;;;;;;;5.53;1.13;;;7.90;99.90;;;;;;5030023;28;20528;-72
2023/01/08 06:55:55;;;;;;;10.05;0.80;;;7.90;99.90;;;;;;5025742;28;20031;-72
2023/01/08 06:58:22;;;;;;;6.95;0.98;;;7.90;99.90;;;;;;5022560;28;20490;-73
2023/01/08 07:00:48;;;;;;;17.25;1.70;;;7.90;99.90;;;;;;5023166;28;20050;-72
2023/01/08 07:03:14;;;;;;;10.88;1.70;;;7.90;99.90;;;;;;5026573;28;20061;-72
2023/01/08 07:05:40;;;;;;;11.27;1.65;;;8.00;99.90;;;;;;5028758;28;20122;-73
2023/01/08 07:08:09;;;;;;;8.00;1.10;;;8.10;99.90;;;;;;5022501;28;20037;-73
2023/01/08 07:13:56;;;;;;;7.55;2.53;;;8.30;99.90;;;;;;5020484;28;20091;-73
2023/01/08 07:16:37;;;;;;;7.63;1.65;;;8.30;99.90;;;;;;5022304;28;20025;-74
2023/01/08 07:19:03;;;;;;;15.07;1.70;;;8.30;99.90;;;;;;5030368;28;20124;-73
2023/01/08 07:21:29;;;;;;;12.80;1.63;;;8.20;99.90;;;;;;5032033;28;20094;-73
2023/01/08 07:23:55;;;;;;;19.05;3.10;;;8.20;99.90;;;;;;5030873;28;20034;-72
2023/01/08 07:26:21;;;;;;;26.33;2.45;;;8.30;99.90;;;;;;5030804;28;20034;-72
2023/01/08 07:28:47;;;;;;;24.27;1.95;;;8.40;99.90;;;;;;5026728;28;20026;-72
2023/01/08 07:31:12;;;;;;;16.65;2.33;;;8.40;99.90;;;;;;5032631;28;20126;-73
2023/01/08 07:33:38;;;;;;;11.45;2.08;;;8.50;99.90;;;;;;5029740;28;20030;-73
2023/01/08 07:36:04;;;;;;;14.27;1.83;;;8.60;99.90;;;;;;5026532;28;20404;-73
2023/01/08 07:38:30;;;;;;;17.33;2.53;;;8.60;99.90;;;;;;5022507;28;20054;-73
2023/01/08 07:40:59;;;;;;;17.27;1.48;;;8.50;99.90;;;;;;5026229;28;20032;-74
2023/01/08 07:43:26;;;;;;;17.65;1.70;;;8.50;99.90;;;;;;5027469;28;20071;-73
2023/01/08 07:45:52;;;;;;;9.90;1.50;;;8.60;99.90;;;;;;5027787;28;20036;-72
2023/01/08 07:48:17;;;;;;;20.05;2.17;;;8.60;99.90;;;;;;5025138;28;20033;-72
2023/01/08 07:50:44;;;;;;;12.02;2.72;;;8.60;99.90;;;;;;5020600;28;20030;-74
2023/01/08 07:53:12;;;;;;;18.58;3.17;;;8.60;99.90;;;;;;5025882;28;20405;-74
2023/01/08 07:55:38;;;;;;;16.83;2.75;;;8.60;99.90;;;;;;5022943;28;20030;-72
2023/01/08 07:58:08;;;;;;;19.35;3.00;;;8.70;99.90;;;;;;5026074;28;20041;-73
2023/01/08 08:00:34;;;;;;;21.77;3.47;;;8.80;99.90;;;;;;5020102;28;20034;-74
2023/01/08 08:03:10;;;;;;;11.63;2.70;;;8.80;99.90;;;;;;5021654;28;20087;-72
2023/01/08 08:05:36;;;;;;;16.42;2.75;;;8.80;99.90;;;;;;5026037;28;20064;-72
2023/01/08 08:08:07;;;;;;;12.63;2.53;;;8.90;99.90;;;;;;5025223;28;20029;-73
2023/01/08 08:10:32;;;;;;;13.95;2.38;;;8.80;99.90;;;;;;5026809;28;20025;-73
2023/01/08 08:12:58;;;;;;;10.30;1.88;;;8.80;99.90;;;;;;5022702;28;20398;-73
2023/01/08 08:15:24;;;;;;;16.15;2.10;;;8.80;99.90;;;;;;5024571;28;20035;-73
2023/01/08 08:17:50;;;;;;;16.05;2.67;;;8.80;99.90;;;;;;5027496;28;20029;-72
2023/01/08 08:20:16;;;;;;;12.20;2.03;;;8.90;99.90;;;;;;5012195;28;20022;-72
2023/01/08 08:22:41;;;;;;;21.52;2.95;;;9.00;99.90;;;;;;5019043;28;20030;-72
2023/01/08 08:25:07;;;;;;;13.90;1.98;;;9.10;99.90;;;;;;5024969;28;20072;-72
2023/01/08 08:27:33;;;;;;;19.70;2.05;;;9.10;99.90;;;;;;5026816;28;20088;-71
2023/01/08 08:29:59;;;;;;;11.20;1.95;;;9.20;99.90;;;;;;5021230;28;20042;-74
2023/01/08 08:32:25;;;;;;;19.23;2.63;;;9.20;99.90;;;;;;5025224;28;20033;-73
2023/01/08 08:34:50;;;;;;;18.08;2.22;;;9.30;99.90;;;;;;5020369;28;20044;-73
2023/01/08 08:37:16;;;;;;;17.50;3.03;;;9.30;99.90;;;;;;5031233;28;20025;-72
2023/01/08 08:39:42;;;;;;;12.77;3.03;;;9.40;99.90;;;;;;5026817;28;20068;-73
2023/01/08 08:42:08;;;;;;;17.38;2.42;;;9.30;99.90;;;;;;5017745;28;20366;-72
2023/01/08 08:44:33;;;;;;;14.07;1.90;;;9.30;99.90;;;;;;5027003;28;20073;-73
2023/01/08 08:46:59;;;;;;;14.93;2.08;;;9.30;99.90;;;;;;5020085;28;20510;-72
2023/01/08 08:49:25;;;;;;;22.65;3.25;;;9.30;99.90;;;;;;5024818;28;20013;-71
2023/01/08 08:51:52;;;;;;;22.27;2.42;;;9.20;99.90;;;;;;5017970;28;20574;-71
2023/01/08 08:54:17;;;;;;;16.00;2.38;;;9.20;99.90;;;;;;5026632;28;20022;-72
2023/01/08 08:56:43;;;;;;;15.00;3.30;;;9.30;99.90;;;;;;5025791;28;20116;-71
2023/01/08 08:59:11;;;;;;;19.10;3.40;;;9.30;99.90;;;;;;5025646;28;20022;-71
2023/01/08 09:01:37;;;;;;;16.15;2.50;;;9.30;99.90;;;;;;5031518;28;20120;-72
2023/01/08 09:04:03;;;;;;;18.85;3.03;;;9.30;99.90;;;;;;5028207;28;20117;-72
2023/01/08 09:06:30;;;;;;;13.27;2.67;;;9.40;99.90;;;;;;5022559;28;20038;-73
2023/01/08 09:08:56;;;;;;;13.70;2.60;;;9.40;99.90;;;;;;5021938;28;20386;-70
2023/01/08 09:11:22;;;;;;;14.95;2.10;;;9.50;99.90;;;;;;5029076;28;20473;-72
2023/01/08 09:13:48;;;;;;;18.00;3.08;;;9.50;99.90;;;;;;5018721;28;20449;-70
2023/01/08 09:16:14;;;;;;;18.75;2.97;;;9.50;99.90;;;;;;5023685;28;21006;-72
2023/01/08 09:18:39;;;;;;;12.25;2.53;;;9.50;99.90;;;;;;5025623;28;20044;-71
2023/01/08 09:21:06;;;;;;;21.75;3.08;;;9.50;99.90;;;;;;5028091;28;20033;-72
2023/01/08 09:23:37;;;;;;;22.48;3.13;;;9.40;99.90;;;;;;5019793;28;20080;-72
2023/01/08 09:26:04;;;;;;;15.57;3.28;;;9.40;99.90;;;;;;5021417;28;20443;-72
2023/01/08 09:28:30;;;;;;;10.60;2.00;;;9.40;99.90;;;;;;5021746;28;20473;-71
2023/01/08 09:30:59;;;;;;;26.15;3.53;;;9.40;99.90;;;;;;5027356;28;20029;-71
2023/01/08 09:33:25;;;;;;;16.65;2.33;;;9.30;99.90;;;;;;5023646;28;20044;-72
2023/01/08 09:35:50;;;;;;;13.90;2.13;;;9.20;99.90;;;;;;5015350;28;20034;-71
2023/01/08 09:38:16;;;;;;;18.30;2.03;;;9.20;99.90;;;;;;5015585;28;20454;-71
2023/01/08 09:41:03;;;;;;;15.82;2.67;;;9.20;99.90;;;;;;5022768;28;20021;-71
2023/01/08 09:43:33;;;;;;;17.40;2.88;;;9.10;99.90;;;;;;5025839;28;20037;-71
2023/01/08 09:46:04;;;;;;;14.70;2.70;;;9.20;99.90;;;;;;5018074;28;20032;-72
2023/01/08 09:48:34;;;;;;;21.23;3.67;;;9.20;99.90;;;;;;5029862;28;20041;-72
2023/01/08 09:51:00;;;;;;;14.75;2.25;;;9.20;99.90;;;;;;5012548;28;20120;-71
2023/01/08 09:53:26;;;;;;;12.75;1.83;;;9.20;99.90;;;;;;5022498;28;20034;-71
2023/01/08 09:56:03;;;;;;;9.63;1.92;;;9.20;99.90;;;;;;5022032;28;20029;-71
2023/01/08 09:58:42;;;;;;;10.52;2.05;;;9.20;99.90;;;;;;5017807;28;20036;-71
2023/01/08 10:01:12;;;;;;;16.35;3.05;;;9.20;99.90;;;;;;5014041;28;20037;-72
2023/01/08 10:03:42;;;;;;;14.10;2.10;;;9.30;99.90;;;;;;5028957;28;20068;-72
2023/01/08 10:06:12;;;;;;;11.52;1.58;;;9.30;99.90;;;;;;5021734;28;20030;-71
2023/01/08 10:08:38;;;;;;;19.13;2.60;;;9.30;99.90;;;;;;5023993;28;20033;-72
2023/01/08 10:11:05;;;;;;;14.48;2.28;;;9.30;99.90;;;;;;5015569;28;20026;-72
2023/01/08 10:13:33;;;;;;;15.90;2.47;;;9.30;99.90;;;;;;5024573;28;20037;-72
2023/01/08 10:15:59;;;;;;;15.20;1.98;;;9.40;99.90;;;;;;5025532;28;20021;-71
2023/01/08 10:18:26;;;;;;;12.63;1.67;;;9.50;99.90;;;;;;5022104;28;20203;-71
2023/01/08 10:20:52;;;;;;;16.95;2.22;;;9.60;99.90;;;;;;5020998;28;20025;-72
2023/01/08 10:23:21;;;;;;;15.23;3.22;;;9.80;99.90;;;;;;5018952;28;20018;-73
2023/01/08 10:25:47;;;;;;;17.08;2.15;;;10.00;99.90;;;;;;5027587;28;20040;-72
2023/01/08 10:28:28;;;;;;;19.50;3.17;;;10.00;99.90;;;;;;5011519;28;20029;-72
2023/01/08 10:30:59;;;;;;;16.15;3.20;;;10.00;99.90;;;;;;5021691;28;20125;-72
2023/01/08 10:33:48;;;;;;;17.88;2.33;;;10.00;99.90;;;;;;5022329;28;20041;-72
2023/01/08 10:36:23;;;;;;;15.85;2.38;;;10.10;99.90;;;;;;5040767;28;20409;-73
2023/01/08 10:38:50;;;;;;;17.85;3.40;;;10.20;99.90;;;;;;5021622;28;20041;-73
2023/01/08 10:41:17;;;;;;;17.23;2.10;;;10.10;99.90;;;;;;5026926;28;20167;-72
2023/01/08 10:43:55;;;;;;;12.13;1.98;;;10.10;99.90;;;;;;5028852;28;20046;-72
2023/01/08 10:46:30;;;;;;;18.25;2.63;;;10.10;99.90;;;;;;5028774;28;20068;-72
2023/01/08 10:49:03;;;;;;;16.27;2.75;;;10.10;99.90;;;;;;5009043;28;20018;-71
2023/01/08 10:51:31;;;;;;;13.73;2.45;;;10.30;99.90;;;;;;5018470;28;20041;-72
2023/01/08 10:54:13;;;;;;;19.55;3.42;;;10.20;99.90;;;;;;5018672;28;20509;-71
2023/01/08 10:56:43;;;;;;;;;;;10.20;99.90;;;;;;5016747;28;20474;-72
2023/01/08 10:59:22;;;;;;;10.90;2.47;;;10.20;99.90;;;;;;5024069;28;19923;-71
2023/01/08 11:01:50;;;;;;;18.63;3.33;;;10.20;99.90;;;;;;5028671;28;20034;-71
2023/01/08 11:04:21;;;;;;;17.25;3.33;;;10.20;99.90;;;;;;5017485;28;20017;-72
2023/01/08 11:06:47;;;;;;;19.38;3.05;;;10.10;99.90;;;;;;5026419;28;20026;-72
2023/01/08 11:09:21;;;;;;;19.00;2.63;;;10.10;99.90;;;;;;5018596;28;20541;-75
2023/01/08 11:11:48;;;;;;;17.08;2.72;;;10.20;99.90;;;;;;5021542;28;20112;-73
2023/01/08 11:14:26;;;;;;;20.00;3.20;;;10.30;99.90;;;;;;5021054;28;20087;-72
2023/01/08 11:16:53;;;;;;;19.48;2.28;;;10.30;99.90;;;;;;5011237;28;20072;-74
2023/01/08 11:19:26;;;;;;;14.68;3.05;;;10.40;99.90;;;;;;5019743;28;20540;-73
2023/01/08 11:22:16;;;;;;;12.32;2.83;;;10.50;99.90;;;;;;5021242;28;20030;-73
2023/01/08 11:24:43;;;;;;;14.23;2.55;;;10.40;99.90;;;;;;5022340;28;20048;-73
2023/01/08 11:27:30;;;;;;;15.93;2.10;;;10.50;99.90;;;;;;5018567;28;20022;-73
2023/01/08 11:30:13;;;;;;;12.10;2.80;;;10.60;99.90;;;;;;5017369;28;20052;-72
2023/01/08 11:33:05;;;;;;;12.63;2.40;;;10.60;99.90;;;;;;5013180;28;20049;-72
2023/01/08 11:35:59;;;;;;;13.05;2.35;;;10.50;99.90;;;;;;5005080;28;20066;-73
2023/01/08 11:38:25;;;;;;;13.10;2.10;;;10.40;99.90;;;;;;5022135;28;20029;-72
2023/01/08 11:41:03;;;;;;;14.50;2.35;;;10.40;99.90;;;;;;5021494;28;20133;-73
2023/01/08 11:43:37;;;;;;;17.60;3.95;;;10.40;99.90;;;;;;5020285;28;20050;-73
2023/01/08 11:46:21;;;;;;;16.20;3.75;;;10.40;99.90;;;;;;5015507;28;20494;-74
2023/01/08 11:49:05;;;;;;;13.88;2.38;;;10.50;99.90;;;;;;5021178;28;20049;-72
2023/01/08 11:51:55;;;;;;;19.15;2.50;;;10.60;99.90;;;;;;5021783;28;20034;-72
2023/01/08 11:54:20;;;;;;;15.27;2.55;;;10.60;99.90;;;;;;5016445;28;20045;-71
2023/01/08 11:57:00;;;;;;;18.48;3.20;;;10.50;99.90;;;;;;5027987;28;20114;-73
2023/01/08 12:00:03;;;;;;;15.65;2.85;;;10.40;99.90;;;;;;5022010;28;20033;-72
2023/01/08 12:02:54;;;;;;;13.10;2.55;;;10.70;99.90;;;;;;5017556;28;20121;-71
2023/01/08 12:05:25;;;;;;;19.20;2.53;;;10.70;99.90;;;;;;5020613;28;20029;-73
2023/01/08 12:08:02;;;;;;;19.85;1.85;;;10.70;99.90;;;;;;5036370;28;20040;-72
2023/01/08 12:10:38;;;;;;;14.43;2.85;;;11.10;99.90;;;;;;5022404;28;20486;-72
2023/01/08 12:13:41;;;;;;;21.73;3.13;;;11.50;99.90;;;;;;5009613;28;20033;-72
2023/01/08 12:16:54;;;;;;;13.48;2.30;;;11.70;99.90;;;;;;5020401;28;20108;-73
2023/01/08 12:19:26;;;;;;;18.75;3.78;;;11.30;99.90;;;;;;4948596;29;20054;-72
2023/01/08 12:22:36;;;;;;;16.23;2.58;;;11.10;99.90;;;;;;4947801;29;20031;-72
2023/01/08 12:25:23;;;;;;;15.85;3.05;;;10.70;99.90;;;;;;4908383;29;20050;-73
2023/01/08 12:28:13;;;;;;;12.30;2.03;;;10.60;99.90;;;;;;4910168;29;20047;-73
2023/01/08 12:31:26;;;;;;;17.83;2.75;;;10.60;99.90;;;;;;4894380;29;20548;-73
2023/01/08 12:34:18;;;;;;;13.80;1.95;;;10.70;99.90;;;;;;4900536;29;20048;-73
2023/01/08 12:36:50;;;;;;;14.68;2.40;;;10.60;99.90;;;;;;4910686;29;20032;-72
2023/01/08 12:39:22;;;;;;;18.02;2.83;;;10.50;99.90;;;;;;4909366;29;20086;-73
2023/01/08 12:41:51;;;;;;;15.40;2.70;;;10.40;99.90;;;;;;4904760;29;20036;-72
2023/01/08 12:44:25;;;;;;;17.48;2.20;;;10.30;99.90;;;;;;4908398;29;20051;-71
2023/01/08 12:46:54;;;;;;;21.30;3.08;;;10.20;99.90;;;;;;4911045;29;20056;-72
2023/01/08 12:49:29;;;;;;;13.98;2.45;;;10.30;99.90;;;;;;4915708;28;20418;-73
2023/01/08 12:51:57;;;;;;;14.20;3.60;;;10.30;99.90;;;;;;4995198;28;20073;-72
2023/01/08 12:54:40;;;;;;;16.70;2.63;;;10.30;99.90;;;;;;4996656;28;20034;-72
2023/01/08 12:57:11;;;;;;;17.92;3.17;;;10.30;99.90;;;;;;4998344;28;20044;-76
2023/01/08 12:59:59;;;;;;;14.50;1.63;;;10.30;99.90;;;;;;5018922;28;20044;-72
2023/01/08 13:02:32;;;;;;;17.00;2.78;;;10.30;99.90;;;;;;5022912;28;20073;-72
2023/01/08 13:04:58;;;;;;;10.27;2.22;;;10.30;99.90;;;;;;5013569;28;20033;-72